sensor_id;sensor_type;location;lat;lon;timestamp;P1;durP1;ratioP1;P2;durP2;ratioP2
6561;SDS011;3314;50.890;4.722;2023-11-21T00:01:48;37.3;;;15.7;;
6561;SDS011;3314;50.890;4.722;2023-11-21T00:03:48;43.3;;;16.9;;
6561;SDS011;3314;50.890;4.722;2023-11-21T00:05:48;39.1;;;16.3;;
6561;SDS011;3314;50.890;4.722;2023-11-21T00:07:48;40.6;;;17.2;;
6561;SDS011;3314;50.890;4.722;2023-11-21T00:09:47;36.8;;;14.7;;
6561;SDS011;3314;50.890;4.722;2023-11-21T00:11:47;40.4;;;16.1;;
6561;SDS011;3314;50.890;4.722;2023-11-21T00:13:46;38.3;;;16.6;;
6561;SDS011;3314;50.890;4.722;2023-11-21T00:15:46;40.3;;;16.0;;
6561;SDS011;3314;50.890;4.722;2023-11-21T00:17:47;38.5;;;16.4;;
6561;SDS011;3314;50.890;4.722;2023-11-21T00:19:46;38.2;;;16.3;;
6561;SDS011;3314;50.890;4.722;2023-11-21T00:21:46;38.3;;;16.9;;
6561;SDS011;3314;50.890;4.722;2023-11-21T00:23:45;41.0;;;16.2;;
6561;SDS011;3314;50.890;4.722;2023-11-21T00:25:45;40.6;;;16.6;;
6561;SDS011;3314;50.890;4.722;2023-11-21T00:27:45;38.6;;;16.3;;
6561;SDS011;3314;50.890;4.722;2023-11-21T00:29:44;38.3;;;16.3;;
6561;SDS011;3314;50.890;4.722;2023-11-21T00:31:44;42.2;;;16.9;;
6561;SDS011;3314;50.890;4.722;2023-11-21T00:33:44;39.1;;;16.1;;
6561;SDS011;3314;50.890;4.722;2023-11-21T00:35:43;35.6;;;15.7;;
6561;SDS011;3314;50.890;4.722;2023-11-21T00:37:43;39.0;;;16.5;;
6561;SDS011;3314;50.890;4.722;2023-11-21T00:39:43;41.2;;;17.3;;
6561;SDS011;3314;50.890;4.722;2023-11-21T00:41:42;35.5;;;14.8;;
6561;SDS011;3314;50.890;4.722;2023-11-21T00:43:42;40.5;;;16.6;;
6561;SDS011;3314;50.890;4.722;2023-11-21T00:45:42;36.5;;;15.9;;
6561;SDS011;3314;50.890;4.722;2023-11-21T00:47:42;39.6;;;16.5;;
6561;SDS011;3314;50.890;4.722;2023-11-21T00:49:42;37.1;;;15.8;;
6561;SDS011;3314;50.890;4.722;2023-11-21T00:51:41;41.3;;;16.2;;
6561;SDS011;3314;50.890;4.722;2023-11-21T00:53:41;41.8;;;16.7;;
6561;SDS011;3314;50.890;4.722;2023-11-21T00:55:41;37.8;;;16.4;;
6561;SDS011;3314;50.890;4.722;2023-11-21T00:57:40;43.8;;;16.1;;
6561;SDS011;3314;50.890;4.722;2023-11-21T00:59:40;40.3;;;15.5;;
6561;SDS011;3314;50.890;4.722;2023-11-21T01:01:40;41.5;;;16.1;;
6561;SDS011;3314;50.890;4.722;2023-11-21T01:03:40;36.4;;;14.4;;
6561;SDS011;3314;50.890;4.722;2023-11-21T01:05:39;34.5;;;14.5;;
6561;SDS011;3314;50.890;4.722;2023-11-21T01:07:39;36.9;;;15.1;;
6561;SDS011;3314;50.890;4.722;2023-11-21T01:09:38;39.0;;;15.7;;
6561;SDS011;3314;50.890;4.722;2023-11-21T01:11:39;33.4;;;14.7;;
6561;SDS011;3314;50.890;4.722;2023-11-21T01:13:39;37.4;;;13.8;;
6561;SDS011;3314;50.890;4.722;2023-11-21T01:15:39;32.1;;;14.3;;
6561;SDS011;3314;50.890;4.722;2023-11-21T01:17:40;35.0;;;15.1;;
6561;SDS011;3314;50.890;4.722;2023-11-21T01:19:39;35.0;;;13.5;;
6561;SDS011;3314;50.890;4.722;2023-11-21T01:21:39;36.2;;;14.8;;
6561;SDS011;3314;50.890;4.722;2023-11-21T01:23:39;30.0;;;12.9;;
6561;SDS011;3314;50.890;4.722;2023-11-21T01:25:38;35.3;;;14.8;;
6561;SDS011;3314;50.890;4.722;2023-11-21T01:27:38;31.3;;;13.2;;
6561;SDS011;3314;50.890;4.722;2023-11-21T01:29:37;35.8;;;14.6;;
6561;SDS011;3314;50.890;4.722;2023-11-21T01:31:37;33.4;;;13.3;;
6561;SDS011;3314;50.890;4.722;2023-11-21T01:33:37;34.3;;;13.8;;
6561;SDS011;3314;50.890;4.722;2023-11-21T01:35:36;36.3;;;14.1;;
6561;SDS011;3314;50.890;4.722;2023-11-21T01:37:36;35.7;;;14.0;;
6561;SDS011;3314;50.890;4.722;2023-11-21T01:39:39;35.9;;;14.9;;
6561;SDS011;3314;50.890;4.722;2023-11-21T01:41:28;35.8;;;14.9;;
6561;SDS011;3314;50.890;4.722;2023-11-21T01:43:29;38.2;;;14.0;;
6561;SDS011;3314;50.890;4.722;2023-11-21T01:45:29;33.3;;;13.2;;
6561;SDS011;3314;50.890;4.722;2023-11-21T01:47:30;40.2;;;14.5;;
6561;SDS011;3314;50.890;4.722;2023-11-21T01:49:30;28.9;;;12.9;;
6561;SDS011;3314;50.890;4.722;2023-11-21T01:51:31;33.8;;;13.4;;
6561;SDS011;3314;50.890;4.722;2023-11-21T01:53:31;33.0;;;13.1;;
6561;SDS011;3314;50.890;4.722;2023-11-21T01:55:31;32.6;;;14.4;;
6561;SDS011;3314;50.890;4.722;2023-11-21T01:57:31;37.5;;;13.9;;
6561;SDS011;3314;50.890;4.722;2023-11-21T01:59:34;34.5;;;15.0;;
6561;SDS011;3314;50.890;4.722;2023-11-21T02:01:33;33.3;;;13.7;;
6561;SDS011;3314;50.890;4.722;2023-11-21T02:03:33;37.6;;;14.0;;
6561;SDS011;3314;50.890;4.722;2023-11-21T02:05:33;33.3;;;12.9;;
6561;SDS011;3314;50.890;4.722;2023-11-21T02:07:32;40.4;;;14.8;;
6561;SDS011;3314;50.890;4.722;2023-11-21T02:09:33;38.5;;;14.9;;
6561;SDS011;3314;50.890;4.722;2023-11-21T02:11:22;35.8;;;15.9;;
6561;SDS011;3314;50.890;4.722;2023-11-21T02:13:22;36.2;;;14.6;;
6561;SDS011;3314;50.890;4.722;2023-11-21T02:15:22;39.9;;;13.8;;
6561;SDS011;3314;50.890;4.722;2023-11-21T02:17:21;33.2;;;14.6;;
6561;SDS011;3314;50.890;4.722;2023-11-21T02:19:23;36.0;;;15.5;;
6561;SDS011;3314;50.890;4.722;2023-11-21T02:21:22;36.3;;;13.8;;
6561;SDS011;3314;50.890;4.722;2023-11-21T02:23:23;38.1;;;14.2;;
6561;SDS011;3314;50.890;4.722;2023-11-21T02:25:24;39.7;;;15.1;;
6561;SDS011;3314;50.890;4.722;2023-11-21T02:27:24;33.0;;;14.1;;
6561;SDS011;3314;50.890;4.722;2023-11-21T02:29:28;36.4;;;14.4;;
6561;SDS011;3314;50.890;4.722;2023-11-21T02:31:28;37.9;;;13.3;;
6561;SDS011;3314;50.890;4.722;2023-11-21T02:33:27;32.0;;;13.6;;
6561;SDS011;3314;50.890;4.722;2023-11-21T02:35:27;35.0;;;13.1;;
6561;SDS011;3314;50.890;4.722;2023-11-21T02:37:26;34.5;;;13.6;;
6561;SDS011;3314;50.890;4.722;2023-11-21T02:39:27;37.2;;;14.9;;
6561;SDS011;3314;50.890;4.722;2023-11-21T02:41:26;39.5;;;15.5;;
6561;SDS011;3314;50.890;4.722;2023-11-21T02:43:26;33.2;;;13.5;;
6561;SDS011;3314;50.890;4.722;2023-11-21T02:45:25;38.8;;;14.6;;
6561;SDS011;3314;50.890;4.722;2023-11-21T02:47:25;35.2;;;13.2;;
6561;SDS011;3314;50.890;4.722;2023-11-21T02:49:28;32.6;;;13.0;;
6561;SDS011;3314;50.890;4.722;2023-11-21T02:51:16;32.6;;;14.8;;
6561;SDS011;3314;50.890;4.722;2023-11-21T02:53:16;37.1;;;13.2;;
6561;SDS011;3314;50.890;4.722;2023-11-21T02:55:15;34.9;;;13.9;;
6561;SDS011;3314;50.890;4.722;2023-11-21T02:57:15;37.3;;;13.6;;
6561;SDS011;3314;50.890;4.722;2023-11-21T02:59:16;37.1;;;13.5;;
6561;SDS011;3314;50.890;4.722;2023-11-21T03:01:15;40.1;;;14.6;;
6561;SDS011;3314;50.890;4.722;2023-11-21T03:03:15;38.3;;;14.2;;
6561;SDS011;3314;50.890;4.722;2023-11-21T03:05:14;34.9;;;13.2;;
6561;SDS011;3314;50.890;4.722;2023-11-21T03:07:14;35.5;;;13.3;;
6561;SDS011;3314;50.890;4.722;2023-11-21T03:09:14;38.6;;;14.2;;
6561;SDS011;3314;50.890;4.722;2023-11-21T03:11:16;36.1;;;14.3;;
6561;SDS011;3314;50.890;4.722;2023-11-21T03:13:15;37.8;;;13.1;;
6561;SDS011;3314;50.890;4.722;2023-11-21T03:15:15;34.7;;;14.7;;
6561;SDS011;3314;50.890;4.722;2023-11-21T03:17:15;38.4;;;15.1;;
6561;SDS011;3314;50.890;4.722;2023-11-21T03:19:15;34.4;;;13.0;;
6561;SDS011;3314;50.890;4.722;2023-11-21T03:21:15;34.5;;;14.7;;
6561;SDS011;3314;50.890;4.722;2023-11-21T03:23:15;43.3;;;15.0;;
6561;SDS011;3314;50.890;4.722;2023-11-21T03:25:15;31.8;;;12.9;;
6561;SDS011;3314;50.890;4.722;2023-11-21T03:27:14;35.3;;;14.5;;
6561;SDS011;3314;50.890;4.722;2023-11-21T03:29:14;34.2;;;13.8;;
6561;SDS011;3314;50.890;4.722;2023-11-21T03:31:14;31.2;;;12.6;;
6561;SDS011;3314;50.890;4.722;2023-11-21T03:33:14;40.8;;;13.6;;
6561;SDS011;3314;50.890;4.722;2023-11-21T03:35:14;34.1;;;14.4;;
6561;SDS011;3314;50.890;4.722;2023-11-21T03:37:14;32.2;;;13.5;;
6561;SDS011;3314;50.890;4.722;2023-11-21T03:39:14;36.4;;;12.5;;
6561;SDS011;3314;50.890;4.722;2023-11-21T03:41:13;37.0;;;14.4;;
6561;SDS011;3314;50.890;4.722;2023-11-21T03:43:13;37.1;;;13.7;;
6561;SDS011;3314;50.890;4.722;2023-11-21T03:45:12;35.1;;;14.7;;
6561;SDS011;3314;50.890;4.722;2023-11-21T03:47:12;31.9;;;13.0;;
6561;SDS011;3314;50.890;4.722;2023-11-21T03:49:12;34.4;;;12.5;;
6561;SDS011;3314;50.890;4.722;2023-11-21T03:51:11;32.0;;;12.1;;
6561;SDS011;3314;50.890;4.722;2023-11-21T03:53:11;32.8;;;13.1;;
6561;SDS011;3314;50.890;4.722;2023-11-21T03:55:11;32.1;;;12.7;;
6561;SDS011;3314;50.890;4.722;2023-11-21T03:57:11;36.8;;;13.8;;
6561;SDS011;3314;50.890;4.722;2023-11-21T03:59:12;33.4;;;13.2;;
6561;SDS011;3314;50.890;4.722;2023-11-21T04:01:11;33.1;;;14.0;;
6561;SDS011;3314;50.890;4.722;2023-11-21T04:03:11;30.4;;;12.5;;
6561;SDS011;3314;50.890;4.722;2023-11-21T04:05:11;32.4;;;13.1;;
6561;SDS011;3314;50.890;4.722;2023-11-21T04:07:11;31.6;;;12.7;;
6561;SDS011;3314;50.890;4.722;2023-11-21T04:09:11;30.7;;;11.9;;
6561;SDS011;3314;50.890;4.722;2023-11-21T04:11:12;31.3;;;12.6;;
6561;SDS011;3314;50.890;4.722;2023-11-21T04:13:11;31.8;;;11.4;;
6561;SDS011;3314;50.890;4.722;2023-11-21T04:15:11;34.2;;;12.9;;
6561;SDS011;3314;50.890;4.722;2023-11-21T04:17:11;26.7;;;11.0;;
6561;SDS011;3314;50.890;4.722;2023-11-21T04:19:11;28.4;;;11.1;;
6561;SDS011;3314;50.890;4.722;2023-11-21T04:21:10;28.4;;;10.8;;
6561;SDS011;3314;50.890;4.722;2023-11-21T04:23:10;29.3;;;11.7;;
6561;SDS011;3314;50.890;4.722;2023-11-21T04:25:00;25.3;;;11.2;;
6561;SDS011;3314;50.890;4.722;2023-11-21T04:27:00;28.3;;;11.8;;
6561;SDS011;3314;50.890;4.722;2023-11-21T04:28:59;30.2;;;11.0;;
6561;SDS011;3314;50.890;4.722;2023-11-21T04:30:59;29.6;;;11.2;;
6561;SDS011;3314;50.890;4.722;2023-11-21T04:32:59;31.0;;;10.6;;
6561;SDS011;3314;50.890;4.722;2023-11-21T04:34:58;32.8;;;12.4;;
6561;SDS011;3314;50.890;4.722;2023-11-21T04:36:58;31.1;;;11.5;;
6561;SDS011;3314;50.890;4.722;2023-11-21T04:38:57;34.3;;;11.7;;
6561;SDS011;3314;50.890;4.722;2023-11-21T04:40:57;24.0;;;11.1;;
6561;SDS011;3314;50.890;4.722;2023-11-21T04:42:57;30.4;;;11.9;;
6561;SDS011;3314;50.890;4.722;2023-11-21T04:44:57;30.1;;;11.3;;
6561;SDS011;3314;50.890;4.722;2023-11-21T04:46:57;31.7;;;10.9;;
6561;SDS011;3314;50.890;4.722;2023-11-21T04:48:57;25.6;;;10.9;;
6561;SDS011;3314;50.890;4.722;2023-11-21T04:50:56;31.0;;;11.8;;
6561;SDS011;3314;50.890;4.722;2023-11-21T04:52:56;29.9;;;12.7;;
6561;SDS011;3314;50.890;4.722;2023-11-21T04:54:57;29.3;;;12.2;;
6561;SDS011;3314;50.890;4.722;2023-11-21T04:56:57;31.2;;;12.8;;
6561;SDS011;3314;50.890;4.722;2023-11-21T04:58:57;27.1;;;11.3;;
6561;SDS011;3314;50.890;4.722;2023-11-21T05:00:56;34.9;;;12.8;;
6561;SDS011;3314;50.890;4.722;2023-11-21T05:02:56;30.4;;;10.9;;
6561;SDS011;3314;50.890;4.722;2023-11-21T05:04:56;28.1;;;11.1;;
6561;SDS011;3314;50.890;4.722;2023-11-21T05:06:57;30.5;;;11.4;;
6561;SDS011;3314;50.890;4.722;2023-11-21T05:08:56;31.2;;;11.2;;
6561;SDS011;3314;50.890;4.722;2023-11-21T05:10:56;27.9;;;11.4;;
6561;SDS011;3314;50.890;4.722;2023-11-21T05:12:56;32.4;;;12.8;;
6561;SDS011;3314;50.890;4.722;2023-11-21T05:14:55;27.6;;;11.4;;
6561;SDS011;3314;50.890;4.722;2023-11-21T05:16:55;30.9;;;12.8;;
6561;SDS011;3314;50.890;4.722;2023-11-21T05:18:57;28.3;;;10.2;;
6561;SDS011;3314;50.890;4.722;2023-11-21T05:20:58;30.5;;;11.4;;
6561;SDS011;3314;50.890;4.722;2023-11-21T05:22:59;30.1;;;12.7;;
6561;SDS011;3314;50.890;4.722;2023-11-21T05:24:59;33.5;;;13.7;;
6561;SDS011;3314;50.890;4.722;2023-11-21T05:26:59;31.1;;;11.4;;
6561;SDS011;3314;50.890;4.722;2023-11-21T05:28:59;30.9;;;12.0;;
6561;SDS011;3314;50.890;4.722;2023-11-21T05:30:58;29.3;;;11.2;;
6561;SDS011;3314;50.890;4.722;2023-11-21T05:32:58;32.9;;;11.4;;
6561;SDS011;3314;50.890;4.722;2023-11-21T05:34:58;27.7;;;10.3;;
6561;SDS011;3314;50.890;4.722;2023-11-21T05:36:58;26.9;;;11.1;;
6561;SDS011;3314;50.890;4.722;2023-11-21T05:38:48;31.6;;;11.8;;
6561;SDS011;3314;50.890;4.722;2023-11-21T05:40:48;29.4;;;12.3;;
6561;SDS011;3314;50.890;4.722;2023-11-21T05:42:48;29.5;;;11.2;;
6561;SDS011;3314;50.890;4.722;2023-11-21T05:44:48;26.9;;;10.9;;
6561;SDS011;3314;50.890;4.722;2023-11-21T05:46:48;31.4;;;11.1;;
6561;SDS011;3314;50.890;4.722;2023-11-21T05:48:47;33.0;;;11.9;;
6561;SDS011;3314;50.890;4.722;2023-11-21T05:50:48;29.9;;;12.2;;
6561;SDS011;3314;50.890;4.722;2023-11-21T05:52:48;35.6;;;13.2;;
6561;SDS011;3314;50.890;4.722;2023-11-21T05:54:47;28.8;;;12.1;;
6561;SDS011;3314;50.890;4.722;2023-11-21T05:56:47;30.6;;;12.4;;
6561;SDS011;3314;50.890;4.722;2023-11-21T05:58:47;30.3;;;10.8;;
6561;SDS011;3314;50.890;4.722;2023-11-21T06:00:46;27.3;;;11.9;;
6561;SDS011;3314;50.890;4.722;2023-11-21T06:02:46;29.0;;;11.9;;
6561;SDS011;3314;50.890;4.722;2023-11-21T06:04:45;34.6;;;12.4;;
6561;SDS011;3314;50.890;4.722;2023-11-21T06:06:45;31.1;;;12.3;;
6561;SDS011;3314;50.890;4.722;2023-11-21T06:08:45;28.2;;;11.4;;
6561;SDS011;3314;50.890;4.722;2023-11-21T06:10:44;31.8;;;11.2;;
6561;SDS011;3314;50.890;4.722;2023-11-21T06:12:44;31.3;;;12.4;;
6561;SDS011;3314;50.890;4.722;2023-11-21T06:14:44;32.1;;;12.4;;
6561;SDS011;3314;50.890;4.722;2023-11-21T06:16:45;31.8;;;11.4;;
6561;SDS011;3314;50.890;4.722;2023-11-21T06:18:45;29.8;;;12.1;;
6561;SDS011;3314;50.890;4.722;2023-11-21T06:20:45;39.7;;;12.6;;
6561;SDS011;3314;50.890;4.722;2023-11-21T06:22:45;35.0;;;12.9;;
6561;SDS011;3314;50.890;4.722;2023-11-21T06:24:45;32.4;;;12.5;;
6561;SDS011;3314;50.890;4.722;2023-11-21T06:26:45;32.5;;;11.8;;
6561;SDS011;3314;50.890;4.722;2023-11-21T06:28:44;31.5;;;11.6;;
6561;SDS011;3314;50.890;4.722;2023-11-21T06:30:45;27.6;;;10.8;;
6561;SDS011;3314;50.890;4.722;2023-11-21T06:32:46;29.5;;;10.5;;
6561;SDS011;3314;50.890;4.722;2023-11-21T06:34:46;31.0;;;12.0;;
6561;SDS011;3314;50.890;4.722;2023-11-21T06:36:45;26.7;;;12.0;;
6561;SDS011;3314;50.890;4.722;2023-11-21T06:38:46;30.9;;;11.8;;
6561;SDS011;3314;50.890;4.722;2023-11-21T06:40:46;28.2;;;11.7;;
6561;SDS011;3314;50.890;4.722;2023-11-21T06:42:47;28.3;;;11.5;;
6561;SDS011;3314;50.890;4.722;2023-11-21T06:44:37;29.7;;;10.7;;
6561;SDS011;3314;50.890;4.722;2023-11-21T06:46:38;33.3;;;12.1;;
6561;SDS011;3314;50.890;4.722;2023-11-21T06:48:39;31.3;;;11.7;;
6561;SDS011;3314;50.890;4.722;2023-11-21T06:50:38;30.7;;;11.5;;
6561;SDS011;3314;50.890;4.722;2023-11-21T06:52:39;30.0;;;12.7;;
6561;SDS011;3314;50.890;4.722;2023-11-21T06:54:38;26.6;;;11.7;;
6561;SDS011;3314;50.890;4.722;2023-11-21T06:56:39;27.2;;;10.8;;
6561;SDS011;3314;50.890;4.722;2023-11-21T06:58:40;32.0;;;11.7;;
6561;SDS011;3314;50.890;4.722;2023-11-21T07:00:39;27.9;;;11.6;;
6561;SDS011;3314;50.890;4.722;2023-11-21T07:02:40;29.9;;;10.8;;
6561;SDS011;3314;50.890;4.722;2023-11-21T07:04:39;26.2;;;10.2;;
6561;SDS011;3314;50.890;4.722;2023-11-21T07:06:39;27.7;;;11.6;;
6561;SDS011;3314;50.890;4.722;2023-11-21T07:08:38;26.9;;;11.4;;
6561;SDS011;3314;50.890;4.722;2023-11-21T07:10:38;30.3;;;11.3;;
6561;SDS011;3314;50.890;4.722;2023-11-21T07:12:38;29.3;;;11.0;;
6561;SDS011;3314;50.890;4.722;2023-11-21T07:14:39;28.4;;;11.4;;
6561;SDS011;3314;50.890;4.722;2023-11-21T07:16:39;25.1;;;10.3;;
6561;SDS011;3314;50.890;4.722;2023-11-21T07:18:38;29.4;;;11.0;;
6561;SDS011;3314;50.890;4.722;2023-11-21T07:20:38;27.2;;;11.6;;
6561;SDS011;3314;50.890;4.722;2023-11-21T07:22:37;27.9;;;11.6;;
6561;SDS011;3314;50.890;4.722;2023-11-21T07:24:37;36.7;;;13.6;;
6561;SDS011;3314;50.890;4.722;2023-11-21T07:26:37;27.2;;;10.4;;
6561;SDS011;3314;50.890;4.722;2023-11-21T07:28:36;29.6;;;11.4;;
6561;SDS011;3314;50.890;4.722;2023-11-21T07:30:36;29.3;;;11.7;;
6561;SDS011;3314;50.890;4.722;2023-11-21T07:32:35;28.4;;;10.1;;
6561;SDS011;3314;50.890;4.722;2023-11-21T07:34:35;27.5;;;10.8;;
6561;SDS011;3314;50.890;4.722;2023-11-21T07:36:35;24.2;;;9.9;;
6561;SDS011;3314;50.890;4.722;2023-11-21T07:38:34;33.0;;;11.3;;
6561;SDS011;3314;50.890;4.722;2023-11-21T07:40:34;29.6;;;11.9;;
6561;SDS011;3314;50.890;4.722;2023-11-21T07:42:34;26.5;;;10.7;;
6561;SDS011;3314;50.890;4.722;2023-11-21T07:44:33;26.9;;;10.9;;
6561;SDS011;3314;50.890;4.722;2023-11-21T07:46:33;29.5;;;11.2;;
6561;SDS011;3314;50.890;4.722;2023-11-21T07:48:33;30.3;;;10.5;;
6561;SDS011;3314;50.890;4.722;2023-11-21T07:50:33;27.8;;;10.2;;
6561;SDS011;3314;50.890;4.722;2023-11-21T07:52:33;27.1;;;10.6;;
6561;SDS011;3314;50.890;4.722;2023-11-21T07:54:35;29.0;;;11.0;;
6561;SDS011;3314;50.890;4.722;2023-11-21T07:56:34;28.7;;;11.2;;
6561;SDS011;3314;50.890;4.722;2023-11-21T07:58:34;32.9;;;12.1;;
6561;SDS011;3314;50.890;4.722;2023-11-21T08:00:24;31.1;;;11.9;;
6561;SDS011;3314;50.890;4.722;2023-11-21T08:02:24;30.5;;;11.7;;
6561;SDS011;3314;50.890;4.722;2023-11-21T08:04:24;27.1;;;10.9;;
6561;SDS011;3314;50.890;4.722;2023-11-21T08:06:24;28.6;;;11.0;;
6561;SDS011;3314;50.890;4.722;2023-11-21T08:08:24;30.7;;;11.8;;
6561;SDS011;3314;50.890;4.722;2023-11-21T08:10:24;38.6;;;12.5;;
6561;SDS011;3314;50.890;4.722;2023-11-21T08:12:24;31.5;;;12.0;;
6561;SDS011;3314;50.890;4.722;2023-11-21T08:14:25;34.2;;;11.1;;
6561;SDS011;3314;50.890;4.722;2023-11-21T08:16:25;29.7;;;11.5;;
6561;SDS011;3314;50.890;4.722;2023-11-21T08:18:25;32.8;;;12.0;;
6561;SDS011;3314;50.890;4.722;2023-11-21T08:20:25;31.1;;;12.0;;
6561;SDS011;3314;50.890;4.722;2023-11-21T08:22:25;28.5;;;11.2;;
6561;SDS011;3314;50.890;4.722;2023-11-21T08:24:25;40.0;;;12.0;;
6561;SDS011;3314;50.890;4.722;2023-11-21T08:26:24;32.4;;;12.2;;
6561;SDS011;3314;50.890;4.722;2023-11-21T08:28:26;30.0;;;12.5;;
6561;SDS011;3314;50.890;4.722;2023-11-21T08:30:25;32.2;;;11.4;;
6561;SDS011;3314;50.890;4.722;2023-11-21T08:32:25;31.8;;;11.5;;
6561;SDS011;3314;50.890;4.722;2023-11-21T08:34:25;29.9;;;11.6;;
6561;SDS011;3314;50.890;4.722;2023-11-21T08:36:25;28.5;;;11.7;;
6561;SDS011;3314;50.890;4.722;2023-11-21T08:38:24;30.3;;;11.3;;
6561;SDS011;3314;50.890;4.722;2023-11-21T08:40:26;30.8;;;12.1;;
6561;SDS011;3314;50.890;4.722;2023-11-21T08:42:25;28.2;;;11.9;;
6561;SDS011;3314;50.890;4.722;2023-11-21T08:44:25;28.8;;;12.4;;
6561;SDS011;3314;50.890;4.722;2023-11-21T08:46:26;34.2;;;13.6;;
6561;SDS011;3314;50.890;4.722;2023-11-21T08:48:25;28.2;;;12.2;;
6561;SDS011;3314;50.890;4.722;2023-11-21T08:50:25;30.5;;;12.3;;
6561;SDS011;3314;50.890;4.722;2023-11-21T08:52:25;30.7;;;13.0;;
6561;SDS011;3314;50.890;4.722;2023-11-21T08:54:26;35.9;;;13.3;;
6561;SDS011;3314;50.890;4.722;2023-11-21T08:56:15;28.6;;;11.2;;
6561;SDS011;3314;50.890;4.722;2023-11-21T08:58:15;28.5;;;11.6;;
6561;SDS011;3314;50.890;4.722;2023-11-21T09:00:17;38.0;;;14.0;;
6561;SDS011;3314;50.890;4.722;2023-11-21T09:02:17;32.2;;;14.0;;
6561;SDS011;3314;50.890;4.722;2023-11-21T09:04:16;33.7;;;13.6;;
6561;SDS011;3314;50.890;4.722;2023-11-21T09:06:16;37.1;;;14.0;;
6561;SDS011;3314;50.890;4.722;2023-11-21T09:08:15;35.2;;;13.2;;
6561;SDS011;3314;50.890;4.722;2023-11-21T09:10:15;34.4;;;13.3;;
6561;SDS011;3314;50.890;4.722;2023-11-21T09:12:15;34.2;;;13.1;;
6561;SDS011;3314;50.890;4.722;2023-11-21T09:14:16;38.0;;;14.3;;
6561;SDS011;3314;50.890;4.722;2023-11-21T09:16:16;35.3;;;13.5;;
6561;SDS011;3314;50.890;4.722;2023-11-21T09:18:16;40.4;;;14.7;;
6561;SDS011;3314;50.890;4.722;2023-11-21T09:20:16;36.9;;;14.0;;
6561;SDS011;3314;50.890;4.722;2023-11-21T09:22:15;33.9;;;13.7;;
6561;SDS011;3314;50.890;4.722;2023-11-21T09:24:15;40.8;;;14.4;;
6561;SDS011;3314;50.890;4.722;2023-11-21T09:26:16;35.7;;;14.6;;
6561;SDS011;3314;50.890;4.722;2023-11-21T09:28:16;36.6;;;14.7;;
6561;SDS011;3314;50.890;4.722;2023-11-21T09:30:15;38.7;;;14.3;;
6561;SDS011;3314;50.890;4.722;2023-11-21T09:32:19;36.9;;;14.3;;
6561;SDS011;3314;50.890;4.722;2023-11-21T09:34:09;40.4;;;15.4;;
6561;SDS011;3314;50.890;4.722;2023-11-21T09:36:11;35.9;;;14.9;;
6561;SDS011;3314;50.890;4.722;2023-11-21T09:38:11;42.9;;;15.2;;
6561;SDS011;3314;50.890;4.722;2023-11-21T09:40:13;36.0;;;14.7;;
6561;SDS011;3314;50.890;4.722;2023-11-21T09:42:18;38.4;;;14.3;;
6561;SDS011;3314;50.890;4.722;2023-11-21T09:44:12;34.7;;;13.7;;
6561;SDS011;3314;50.890;4.722;2023-11-21T09:46:17;37.6;;;13.8;;
6561;SDS011;3314;50.890;4.722;2023-11-21T09:48:06;37.9;;;13.9;;
6561;SDS011;3314;50.890;4.722;2023-11-21T09:50:08;33.5;;;14.5;;
6561;SDS011;3314;50.890;4.722;2023-11-21T09:52:08;36.5;;;13.2;;
6561;SDS011;3314;50.890;4.722;2023-11-21T09:54:09;36.8;;;14.0;;
6561;SDS011;3314;50.890;4.722;2023-11-21T09:56:09;36.5;;;15.4;;
6561;SDS011;3314;50.890;4.722;2023-11-21T09:58:13;36.6;;;13.8;;
6561;SDS011;3314;50.890;4.722;2023-11-21T10:00:13;33.2;;;14.1;;
6561;SDS011;3314;50.890;4.722;2023-11-21T10:02:14;36.2;;;12.0;;
6561;SDS011;3314;50.890;4.722;2023-11-21T10:04:13;37.5;;;13.2;;
6561;SDS011;3314;50.890;4.722;2023-11-21T10:06:14;31.3;;;12.6;;
6561;SDS011;3314;50.890;4.722;2023-11-21T10:08:05;33.2;;;12.9;;
6561;SDS011;3314;50.890;4.722;2023-11-21T10:10:06;29.0;;;12.7;;
6561;SDS011;3314;50.890;4.722;2023-11-21T10:12:08;30.2;;;12.4;;
6561;SDS011;3314;50.890;4.722;2023-11-21T10:14:11;30.2;;;11.6;;
6561;SDS011;3314;50.890;4.722;2023-11-21T10:16:13;27.3;;;12.3;;
6561;SDS011;3314;50.890;4.722;2023-11-21T10:18:03;32.5;;;12.7;;
6561;SDS011;3314;50.890;4.722;2023-11-21T10:20:03;30.2;;;12.2;;
6561;SDS011;3314;50.890;4.722;2023-11-21T10:22:04;30.9;;;13.1;;
6561;SDS011;3314;50.890;4.722;2023-11-21T10:24:05;33.8;;;12.2;;
6561;SDS011;3314;50.890;4.722;2023-11-21T10:26:05;36.3;;;12.7;;
6561;SDS011;3314;50.890;4.722;2023-11-21T10:28:06;31.1;;;13.1;;
6561;SDS011;3314;50.890;4.722;2023-11-21T10:30:06;34.9;;;13.2;;
6561;SDS011;3314;50.890;4.722;2023-11-21T10:32:06;39.6;;;16.8;;
6561;SDS011;3314;50.890;4.722;2023-11-21T10:34:13;46.1;;;16.8;;
6561;SDS011;3314;50.890;4.722;2023-11-21T10:36:03;45.0;;;17.8;;
6561;SDS011;3314;50.890;4.722;2023-11-21T10:38:03;51.6;;;19.2;;
6561;SDS011;3314;50.890;4.722;2023-11-21T10:40:03;42.3;;;17.8;;
6561;SDS011;3314;50.890;4.722;2023-11-21T10:42:03;40.6;;;16.7;;
6561;SDS011;3314;50.890;4.722;2023-11-21T10:44:04;48.2;;;16.7;;
6561;SDS011;3314;50.890;4.722;2023-11-21T10:46:04;47.0;;;16.3;;
6561;SDS011;3314;50.890;4.722;2023-11-21T10:48:05;38.8;;;16.1;;
6561;SDS011;3314;50.890;4.722;2023-11-21T10:50:05;45.9;;;15.4;;
6561;SDS011;3314;50.890;4.722;2023-11-21T10:52:05;43.6;;;15.8;;
6561;SDS011;3314;50.890;4.722;2023-11-21T10:54:05;48.7;;;16.1;;
6561;SDS011;3314;50.890;4.722;2023-11-21T10:56:05;45.2;;;15.8;;
6561;SDS011;3314;50.890;4.722;2023-11-21T10:58:06;46.5;;;18.6;;
6561;SDS011;3314;50.890;4.722;2023-11-21T10:59:56;50.2;;;20.5;;
6561;SDS011;3314;50.890;4.722;2023-11-21T11:01:58;51.6;;;19.6;;
6561;SDS011;3314;50.890;4.722;2023-11-21T11:03:58;51.3;;;20.1;;
6561;SDS011;3314;50.890;4.722;2023-11-21T11:05:58;44.1;;;16.6;;
6561;SDS011;3314;50.890;4.722;2023-11-21T11:08:02;44.5;;;17.5;;
6561;SDS011;3314;50.890;4.722;2023-11-21T11:10:05;43.6;;;17.8;;
6561;SDS011;3314;50.890;4.722;2023-11-21T11:11:54;39.5;;;17.4;;
6561;SDS011;3314;50.890;4.722;2023-11-21T11:13:54;39.5;;;16.1;;
6561;SDS011;3314;50.890;4.722;2023-11-21T11:15:57;42.4;;;16.0;;
6561;SDS011;3314;50.890;4.722;2023-11-21T11:17:57;37.9;;;15.7;;
6561;SDS011;3314;50.890;4.722;2023-11-21T11:19:58;41.3;;;15.8;;
6561;SDS011;3314;50.890;4.722;2023-11-21T11:22:00;37.8;;;15.3;;
6561;SDS011;3314;50.890;4.722;2023-11-21T11:23:57;38.7;;;15.0;;
6561;SDS011;3314;50.890;4.722;2023-11-21T11:26:05;41.7;;;14.5;;
6561;SDS011;3314;50.890;4.722;2023-11-21T11:27:54;39.3;;;13.6;;
6561;SDS011;3314;50.890;4.722;2023-11-21T11:29:59;36.6;;;14.0;;
6561;SDS011;3314;50.890;4.722;2023-11-21T11:31:53;39.1;;;14.3;;
6561;SDS011;3314;50.890;4.722;2023-11-21T11:33:57;38.3;;;14.5;;
6561;SDS011;3314;50.890;4.722;2023-11-21T11:36:00;44.4;;;15.0;;
6561;SDS011;3314;50.890;4.722;2023-11-21T11:37:50;36.7;;;14.7;;
6561;SDS011;3314;50.890;4.722;2023-11-21T11:39:49;34.8;;;14.5;;
6561;SDS011;3314;50.890;4.722;2023-11-21T11:41:51;38.4;;;13.7;;
6561;SDS011;3314;50.890;4.722;2023-11-21T11:43:51;33.3;;;12.0;;
6561;SDS011;3314;50.890;4.722;2023-11-21T11:45:55;33.6;;;12.4;;
6561;SDS011;3314;50.890;4.722;2023-11-21T11:47:56;35.4;;;12.9;;
6561;SDS011;3314;50.890;4.722;2023-11-21T11:49:58;34.6;;;13.1;;
6561;SDS011;3314;50.890;4.722;2023-11-21T11:51:47;37.0;;;11.8;;
6561;SDS011;3314;50.890;4.722;2023-11-21T11:53:47;36.9;;;12.4;;
6561;SDS011;3314;50.890;4.722;2023-11-21T11:55:47;32.1;;;12.6;;
6561;SDS011;3314;50.890;4.722;2023-11-21T11:57:48;28.4;;;11.9;;
6561;SDS011;3314;50.890;4.722;2023-11-21T12:00:19;34.1;;;11.8;;
6561;SDS011;3314;50.890;4.722;2023-11-21T12:01:54;28.1;;;11.2;;
6561;SDS011;3314;50.890;4.722;2023-11-21T12:04:27;21.7;;;10.6;;
6561;SDS011;3314;50.890;4.722;2023-11-21T12:05:53;23.2;;;9.3;;
6561;SDS011;3314;50.890;4.722;2023-11-21T12:07:54;20.9;;;8.7;;
6561;SDS011;3314;50.890;4.722;2023-11-21T12:09:54;21.6;;;9.1;;
6561;SDS011;3314;50.890;4.722;2023-11-21T12:11:55;21.3;;;8.8;;
6561;SDS011;3314;50.890;4.722;2023-11-21T12:13:45;24.7;;;9.6;;
6561;SDS011;3314;50.890;4.722;2023-11-21T12:15:46;20.3;;;8.9;;
6561;SDS011;3314;50.890;4.722;2023-11-21T12:17:46;22.9;;;9.0;;
6561;SDS011;3314;50.890;4.722;2023-11-21T12:19:46;21.2;;;7.3;;
6561;SDS011;3314;50.890;4.722;2023-11-21T12:21:46;20.7;;;8.0;;
6561;SDS011;3314;50.890;4.722;2023-11-21T12:23:47;21.8;;;8.7;;